International Virtual Aviation Organisation

Russian Federation and Kazakhstan MCD

 

Карточка аэропорта UUYY

Внимание!
Информация на этой странице в стадии наполнения.
Если вы не увидели какой-то информации, или заметили неточность - пожалуйста сообщите нам!
Спасибо!
Команда RU-STAFF
Название аэропортаСыктывкар
Название аэропорта (англ.)Syktyvkar
Превышение341 ft. (103.9 m.)
Координаты61°38.502', 50°50.298'
Высота перехода700
Эшелон переходаQFE>760: FL40; 760>QFE>733: FL50; 733 >QFE :FL60;
Коды ответчика3130-3134, 5752-5757, 5770-5777, 6701-6717
Зона ОрВДСыктывкар РПИ (UUYY)
Данные METARUUYY 260600Z 27003MPS 9000 -SHSN SCT011 BKN020CB 00/M00 Q0992 R18/650535 TEMPO 2100 -SHSN RMK QFE736/0981
Проноз погоды (TAF)UUYY 260500Z 2606/2706 27005G10MPS 3100 -SHSN BKN011 BKN015CB TEMPO 2606/2615 25007G14MPS 0700 +SHSN BKN005 BKN012CB FM261500 22003G08MPS 2100 -SHSN BR BKN007 BKN015CB TEMPO 2616/2706 VRB01MPS 0300 FZFG BKN002
NOTAMshow/hide NOTAM
AWOS   TABLE

Информация о ВПП

ВПП Длина ВПП (м.) Покрытие Курс ВПП Частота ILS
012500Асфальтобетон6108.3
192500Асфальтобетон186111.7

Диспетчерские позиции

Позывной Наименование органа УВД Частота
UUYY_TWRСивкар-Старт124.600
UUYY_R_APPСивкар-Круг124.600



Спутниковое изображение